Time;durP1;ratioP1;P1;durP2;ratioP2;P2;SDS_P1;SDS_P2;PMS_P1;PMS_P2;Temp;Humidity;BMP_temperature;BMP_pressure;BME280_temperature;BME280_humidity;BME280_pressure;Samples;Min_cycle;Max_cycle;Signal;HPM_P1;HPM_P2
2022/06/22 00:00:21;;;;;;;44.17;23.85;;;13.10;99.90;;;;;;5033746;28;20028;-68
2022/06/22 00:02:51;;;;;;;44.03;23.70;;;13.10;99.90;;;;;;5033961;28;20025;-69
2022/06/22 00:05:21;;;;;;;53.35;27.50;;;13.10;99.90;;;;;;5034447;28;20390;-68
2022/06/22 00:07:58;;;;;;;69.13;28.73;;;13.20;99.90;;;;;;5034018;28;20048;-68
2022/06/22 00:10:34;;;;;;;45.33;28.52;;;13.20;99.90;;;;;;5033576;28;20470;-68
2022/06/22 00:13:01;;;;;;;54.58;30.17;;;13.20;99.90;;;;;;5033733;28;20030;-68
2022/06/22 00:15:37;;;;;;;52.97;29.45;;;13.10;99.90;;;;;;5033292;28;20036;-68
2022/06/22 00:18:19;;;;;;;51.15;30.65;;;13.10;99.90;;;;;;5033405;28;20032;-68
2022/06/22 00:20:50;;;;;;;55.47;28.58;;;13.10;99.90;;;;;;5033739;28;20029;-68
2022/06/22 00:23:15;;;;;;;44.28;27.13;;;13.10;99.90;;;;;;5033689;28;20045;-68
2022/06/22 00:25:42;;;;;;;44.42;24.92;;;13.10;99.90;;;;;;5033646;28;20099;-69
2022/06/22 00:28:31;;;;;;;46.65;25.17;;;13.10;99.90;;;;;;5033330;28;20108;-68
2022/06/22 00:31:20;;;;;;;41.17;24.58;;;13.10;99.90;;;;;;5033306;28;20036;-68
2022/06/22 00:34:01;;;;;;;55.92;23.60;;;13.00;99.90;;;;;;5033657;28;20117;-68
2022/06/22 00:36:32;;;;;;;49.35;22.83;;;13.10;99.90;;;;;;5033174;28;20030;-68
2022/06/22 00:39:15;;;;;;;38.90;24.10;;;13.00;99.90;;;;;;5032966;28;20029;-68
2022/06/22 00:41:44;;;;;;;45.47;23.02;;;12.90;99.90;;;;;;5032605;28;20030;-71
2022/06/22 00:44:12;;;;;;;39.63;22.75;;;12.80;99.90;;;;;;5033298;28;20032;-71
2022/06/22 00:46:44;;;;;;;53.40;22.92;;;12.70;99.90;;;;;;5033291;28;20028;-71
2022/06/22 00:49:17;;;;;;;46.55;24.33;;;12.60;99.90;;;;;;5033087;28;20082;-71
2022/06/22 00:51:43;;;;;;;45.45;22.58;;;12.50;99.90;;;;;;5033402;28;20083;-71
2022/06/22 00:54:18;;;;;;;41.90;23.60;;;12.50;99.90;;;;;;5033522;28;20022;-71
2022/06/22 00:56:54;;;;;;;41.53;22.67;;;12.60;99.90;;;;;;5033444;28;20076;-71
2022/06/22 01:00:01;;;;;;;37.55;21.33;;;12.50;99.90;;;;;;5033350;28;20048;-70
2022/06/22 01:02:40;;;;;;;42.10;22.67;;;12.50;99.90;;;;;;4992440;28;20034;-70
2022/06/22 01:05:29;;;;;;;34.90;22.17;;;12.60;99.90;;;;;;4992116;28;20053;-71
2022/06/22 01:08:08;;;;;;;39.03;20.90;;;12.60;99.90;;;;;;5022176;28;20033;-71
2022/06/22 01:11:03;;;;;;;49.33;24.60;;;12.50;99.90;;;;;;5033065;28;20478;-71
2022/06/22 01:13:45;;;;;;;43.50;19.55;;;12.40;99.90;;;;;;5036579;28;20040;-71
2022/06/22 01:16:21;;;;;;;36.63;21.05;;;12.30;99.90;;;;;;5036810;28;20064;-71
2022/06/22 01:19:02;;;;;;;37.13;20.95;;;12.20;99.90;;;;;;5036667;28;20060;-71
2022/06/22 01:21:35;;;;;;;33.10;19.17;;;12.10;99.90;;;;;;5036671;28;20021;-71
2022/06/22 01:24:07;;;;;;;45.13;21.63;;;12.10;99.90;;;;;;5036709;28;20438;-71
2022/06/22 01:26:41;;;;;;;37.97;21.48;;;12.20;99.90;;;;;;5036481;28;20093;-71
2022/06/22 01:29:27;;;;;;;50.78;22.02;;;12.30;99.90;;;;;;5035084;28;20039;-70
2022/06/22 01:32:00;;;;;;;43.58;20.83;;;12.40;99.90;;;;;;5036114;28;20045;-71
2022/06/22 01:34:34;;;;;;;41.95;21.05;;;12.50;99.90;;;;;;5036562;28;20029;-71
2022/06/22 01:37:02;;;;;;;34.63;19.02;;;12.60;99.90;;;;;;5036264;28;20113;-71
2022/06/22 01:39:28;;;;;;;52.38;19.73;;;12.60;99.90;;;;;;5036212;28;20116;-71
2022/06/22 01:42:07;;;;;;;39.22;18.45;;;12.70;99.90;;;;;;5036094;28;20056;-71
2022/06/22 01:44:54;;;;;;;39.30;17.35;;;12.80;99.90;;;;;;5036152;28;20028;-71
2022/06/22 01:47:47;;;;;;;47.83;16.95;;;12.80;99.90;;;;;;5035919;28;20465;-71
2022/06/22 01:50:21;;;;;;;35.42;16.98;;;12.90;99.90;;;;;;5036476;28;20060;-71
2022/06/22 01:53:24;;;;;;;29.92;16.27;;;13.00;99.90;;;;;;5036326;28;20028;-71
2022/06/22 01:56:07;;;;;;;37.00;15.75;;;13.00;99.90;;;;;;5035744;28;20033;-71
2022/06/22 01:58:50;;;;;;;37.13;16.60;;;13.10;99.90;;;;;;5049736;28;20048;-71
2022/06/22 02:01:32;;;;;;;40.90;16.67;;;13.10;99.90;;;;;;5056032;28;20017;-71
2022/06/22 02:04:19;;;;;;;42.70;19.50;;;13.10;99.90;;;;;;5055365;28;20028;-71
2022/06/22 02:10:05;;;;;;;39.28;16.85;;;13.20;99.90;;;;;;5054888;28;20028;-70
2022/06/22 02:12:39;;;;;;;34.72;15.82;;;13.20;99.90;;;;;;5035596;28;20037;-71
2022/06/22 02:15:19;;;;;;;40.90;15.52;;;13.30;99.90;;;;;;5035682;28;20029;-71
2022/06/22 02:17:45;;;;;;;21.17;13.05;;;13.30;99.90;;;;;;5035773;28;20029;-71
2022/06/22 02:20:25;;;;;;;33.72;15.52;;;13.30;99.90;;;;;;5035332;28;20025;-71
2022/06/22 02:22:55;;;;;;;41.38;13.80;;;13.30;99.90;;;;;;5035042;28;20032;-71
2022/06/22 02:25:22;;;;;;;37.22;12.90;;;13.30;99.90;;;;;;5035284;28;20063;-71
2022/06/22 02:27:48;;;;;;;31.35;12.45;;;13.30;99.90;;;;;;5035282;28;20059;-71
2022/06/22 02:30:13;;;;;;;32.30;12.52;;;13.30;99.90;;;;;;5035078;28;20113;-70
2022/06/22 02:32:42;;;;;;;33.38;11.82;;;13.30;99.90;;;;;;5035744;28;20037;-71
2022/06/22 02:35:11;;;;;;;30.63;12.07;;;13.40;99.90;;;;;;5035125;28;20033;-71
2022/06/22 02:37:52;;;;;;;36.60;13.63;;;13.40;99.90;;;;;;5035539;28;20057;-71
2022/06/22 02:40:21;;;;;;;31.50;13.23;;;13.40;99.90;;;;;;5034991;28;20455;-71
2022/06/22 02:45:32;;;;;;;26.52;12.27;;;13.40;99.90;;;;;;5015854;28;20040;-71
2022/06/22 02:48:22;;;;;;;31.83;11.68;;;13.40;99.90;;;;;;5014892;28;20026;-71
2022/06/22 02:51:10;;;;;;;27.40;11.27;;;13.40;99.90;;;;;;5015135;28;20425;-71
2022/06/22 02:53:39;;;;;;;29.35;12.25;;;13.40;99.90;;;;;;5015592;28;20026;-71
2022/06/22 02:56:11;;;;;;;34.80;12.90;;;13.40;99.90;;;;;;5015354;28;20455;-71
2022/06/22 02:58:37;;;;;;;29.40;12.75;;;13.40;99.90;;;;;;5015375;28;20053;-71
2022/06/22 03:01:12;;;;;;;35.08;11.32;;;13.40;99.90;;;;;;5015393;28;20026;-71
2022/06/22 03:03:51;;;;;;;35.70;12.18;;;13.40;99.90;;;;;;5015204;28;20076;-71
2022/06/22 03:06:21;;;;;;;35.45;12.20;;;13.40;99.90;;;;;;5015220;28;20053;-71
2022/06/22 03:08:48;;;;;;;38.53;12.07;;;13.40;99.90;;;;;;5015206;28;20540;-71
2022/06/22 03:11:15;;;;;;;44.28;14.45;;;13.50;99.90;;;;;;5014760;28;20076;-71
2022/06/22 03:13:53;;;;;;;32.92;11.65;;;13.50;99.90;;;;;;5024824;28;20060;-71
2022/06/22 03:16:32;;;;;;;22.88;11.70;;;13.50;99.90;;;;;;5034378;28;20074;-71
2022/06/22 03:19:04;;;;;;;27.83;12.18;;;13.40;99.90;;;;;;5034603;28;20078;-71
2022/06/22 03:21:31;;;;;;;33.35;12.38;;;13.50;99.90;;;;;;5034589;28;20026;-71
2022/06/22 03:24:06;;;;;;;28.50;12.35;;;13.50;99.90;;;;;;5034631;28;20052;-71
2022/06/22 03:26:40;;;;;;;33.70;12.18;;;13.50;99.90;;;;;;5034682;28;20022;-70
2022/06/22 03:29:33;;;;;;;41.08;12.70;;;13.50;99.90;;;;;;5034941;28;20381;-71
2022/06/22 03:32:20;;;;;;;21.92;12.05;;;13.50;99.90;;;;;;5035104;28;20109;-71
2022/06/22 03:34:50;;;;;;;28.67;10.88;;;13.50;99.90;;;;;;5034211;28;20029;-71
2022/06/22 03:37:32;;;;;;;23.05;10.48;;;13.50;99.90;;;;;;5034486;28;20026;-71
2022/06/22 03:40:05;;;;;;;28.73;10.32;;;13.40;99.90;;;;;;5034287;28;20089;-71
2022/06/22 03:42:58;;;;;;;27.65;12.45;;;13.30;99.90;;;;;;5034104;28;20030;-71
2022/06/22 03:45:31;;;;;;;36.33;10.63;;;13.20;99.90;;;;;;5034273;28;20036;-71
2022/06/22 03:48:19;;;;;;;40.33;12.13;;;13.20;99.90;;;;;;5034324;28;20296;-71
2022/06/22 03:50:53;;;;;;;27.02;11.05;;;13.20;99.90;;;;;;5038327;28;20032;-71
2022/06/22 03:53:30;;;;;;;33.45;12.70;;;13.20;99.90;;;;;;5054010;28;20029;-71
2022/06/22 03:56:02;;;;;;;31.13;12.40;;;13.20;99.90;;;;;;5054575;28;20112;-70
2022/06/22 03:58:28;;;;;;;26.13;11.57;;;13.20;99.90;;;;;;5054401;28;20052;-71
2022/06/22 04:00:54;;;;;;;28.45;11.07;;;13.30;99.90;;;;;;5053789;28;20063;-71
2022/06/22 04:03:20;;;;;;;30.35;12.60;;;13.20;99.90;;;;;;5053846;28;20029;-71
2022/06/22 04:05:49;;;;;;;29.20;11.35;;;13.20;99.90;;;;;;5054477;28;20027;-71
2022/06/22 04:08:40;;;;;;;18.80;9.88;;;13.10;99.90;;;;;;5053816;28;20067;-71
2022/06/22 04:11:14;;;;;;;36.10;11.50;;;13.10;99.90;;;;;;5046430;28;20051;-71
2022/06/22 04:14:10;;;;;;;25.83;11.13;;;13.10;99.90;;;;;;5048097;28;20485;-70
2022/06/22 04:16:42;;;;;;;24.35;9.90;;;13.10;99.90;;;;;;5029489;28;20508;-71
2022/06/22 04:19:22;;;;;;;32.42;11.98;;;13.00;99.90;;;;;;5032180;28;20055;-71
2022/06/22 04:21:52;;;;;;;25.65;9.75;;;13.00;99.90;;;;;;5033879;28;20064;-71
2022/06/22 04:24:23;;;;;;;20.67;10.13;;;13.00;99.90;;;;;;5033791;28;20108;-71
2022/06/22 04:27:06;;;;;;;30.42;11.90;;;13.10;99.90;;;;;;5033723;28;20109;-71
2022/06/22 04:30:03;;;;;;;25.63;10.70;;;13.10;99.90;;;;;;5034590;28;20024;-71
2022/06/22 04:32:41;;;;;;;29.35;10.50;;;13.10;99.90;;;;;;5015883;28;20033;-71
2022/06/22 04:35:36;;;;;;;30.10;11.77;;;13.20;99.90;;;;;;5033884;28;20125;-71
2022/06/22 04:38:26;;;;;;;25.88;11.82;;;13.30;99.90;;;;;;5027564;28;20029;-71
2022/06/22 04:41:13;;;;;;;34.83;12.30;;;13.30;99.90;;;;;;5031419;28;20494;-70
2022/06/22 04:43:39;;;;;;;34.70;10.88;;;13.40;99.90;;;;;;5033782;28;20528;-71
2022/06/22 04:46:08;;;;;;;38.63;12.20;;;13.40;99.90;;;;;;5043468;28;20087;-71
2022/06/22 04:48:46;;;;;;;35.30;12.07;;;13.50;99.90;;;;;;5057030;28;20036;-71
2022/06/22 04:51:20;;;;;;;29.77;11.90;;;13.60;99.90;;;;;;5057473;28;20029;-71
2022/06/22 04:54:07;;;;;;;30.80;10.93;;;13.60;99.90;;;;;;5041074;28;20048;-71
2022/06/22 04:56:38;;;;;;;33.63;11.77;;;13.70;99.90;;;;;;5037419;28;20109;-71
2022/06/22 04:59:05;;;;;;;37.20;13.50;;;13.70;99.90;;;;;;5036910;28;20104;-71
2022/06/22 05:01:37;;;;;;;32.33;11.95;;;13.80;99.90;;;;;;5037367;28;20018;-71
2022/06/22 05:04:15;;;;;;;36.47;13.70;;;13.90;99.90;;;;;;5037290;28;20026;-71
2022/06/22 05:07:11;;;;;;;40.55;12.57;;;14.00;99.90;;;;;;5049197;28;20028;-71
2022/06/22 05:09:42;;;;;;;34.03;12.18;;;14.10;99.90;;;;;;5057252;28;20024;-71
2022/06/22 05:12:20;;;;;;;35.22;12.27;;;14.00;99.90;;;;;;5056985;28;20029;-71
2022/06/22 05:14:48;;;;;;;23.20;11.25;;;14.20;99.90;;;;;;5047238;28;20103;-71
2022/06/22 05:17:22;;;;;;;34.80;13.35;;;14.20;99.90;;;;;;5036791;28;20055;-70
2022/06/22 05:19:57;;;;;;;38.13;13.70;;;14.30;99.90;;;;;;5036755;28;20036;-71
2022/06/22 05:22:23;;;;;;;34.97;12.02;;;14.40;99.90;;;;;;5036810;28;20025;-71
2022/06/22 05:24:58;;;;;;;36.53;10.85;;;14.50;99.90;;;;;;5037115;28;20040;-71
2022/06/22 05:27:30;;;;;;;29.85;11.07;;;14.60;99.90;;;;;;5036336;28;20065;-70
2022/06/22 05:30:07;;;;;;;36.17;11.15;;;14.80;99.90;;;;;;5036729;28;20041;-71
2022/06/22 05:32:42;;;;;;;31.27;11.25;;;14.90;99.90;;;;;;5036639;28;20025;-71
2022/06/22 05:35:23;;;;;;;33.58;10.80;;;15.20;99.90;;;;;;5036387;28;20018;-71
2022/06/22 05:37:52;;;;;;;25.92;10.48;;;15.30;99.90;;;;;;5036638;28;20036;-71
2022/06/22 05:40:20;;;;;;;25.05;10.90;;;15.30;99.90;;;;;;5034690;28;20040;-71
2022/06/22 05:42:46;;;;;;;35.33;10.02;;;15.40;99.90;;;;;;5036451;28;20029;-71
2022/06/22 05:45:25;;;;;;;19.58;9.07;;;15.30;99.90;;;;;;5036332;28;20037;-71
2022/06/22 05:47:53;;;;;;;22.45;9.38;;;15.40;99.90;;;;;;5044367;28;20108;-70
2022/06/22 05:50:24;;;;;;;26.58;9.98;;;15.40;99.90;;;;;;5056779;28;20496;-71
2022/06/22 05:53:00;;;;;;;30.95;8.70;;;15.40;99.90;;;;;;5056410;28;20032;-71
2022/06/22 05:55:35;;;;;;;30.35;9.43;;;15.50;99.90;;;;;;5056413;28;20028;-71
2022/06/22 05:58:26;;;;;;;26.13;9.63;;;15.50;99.90;;;;;;5055840;28;20439;-70
2022/06/22 06:00:54;;;;;;;36.78;9.95;;;15.60;99.90;;;;;;5016410;28;20097;-71
2022/06/22 06:03:25;;;;;;;34.33;9.65;;;15.70;99.90;;;;;;5016158;28;20036;-71
2022/06/22 06:06:28;;;;;;;24.08;10.25;;;15.90;99.90;;;;;;5016273;28;20045;-71
2022/06/22 06:09:10;;;;;;;26.20;9.07;;;16.20;99.90;;;;;;4994728;28;20030;-70
2022/06/22 06:11:48;;;;;;;32.67;8.27;;;16.60;99.90;;;;;;5014023;28;20048;-71
2022/06/22 06:14:25;;;;;;;17.10;8.02;;;16.50;99.90;;;;;;5015912;28;20061;-71
2022/06/22 06:16:54;;;;;;;21.23;7.90;;;16.50;99.90;;;;;;5015988;28;20038;-71
2022/06/22 06:19:28;;;;;;;26.75;8.07;;;16.40;99.90;;;;;;5034589;28;20025;-71
2022/06/22 06:21:57;;;;;;;22.52;8.00;;;16.30;99.90;;;;;;5035542;28;20029;-71
2022/06/22 06:27:34;;;;;;;21.63;7.47;;;16.30;99.90;;;;;;5035931;28;20049;-71
2022/06/22 06:27:38;;;;;;;23.42;6.25;;;16.20;99.90;;;;;;5035898;28;20025;-71
2022/06/22 06:30:33;;;;;;;20.83;5.90;;;16.30;99.90;;;;;;5034500;28;20033;-71
2022/06/22 06:32:59;;;;;;;19.27;6.55;;;16.30;99.90;;;;;;5035686;28;20090;-71
2022/06/22 06:35:33;;;;;;;16.65;6.50;;;16.60;99.90;;;;;;5035689;28;20109;-71
2022/06/22 06:38:01;;;;;;;18.45;5.22;;;16.70;99.90;;;;;;5035699;28;20030;-71
2022/06/22 06:40:43;;;;;;;18.85;6.32;;;16.80;99.90;;;;;;5036097;28;20032;-71
2022/06/22 06:43:09;;;;;;;15.20;5.25;;;16.80;99.90;;;;;;5035383;28;20382;-72
2022/06/22 06:45:35;;;;;;;16.23;5.53;;;16.80;99.90;;;;;;5035413;28;20026;-71
2022/06/22 06:48:05;;;;;;;20.90;6.63;;;16.70;99.90;;;;;;5035605;28;20058;-71
2022/06/22 06:50:47;;;;;;;16.88;6.00;;;16.50;99.90;;;;;;5035271;28;20025;-71
2022/06/22 06:53:36;;;;;;;20.42;6.13;;;16.50;99.90;;;;;;5035483;28;20029;-71
2022/06/22 06:56:25;;;;;;;19.15;5.65;;;16.50;99.90;;;;;;5035119;28;20037;-71
2022/06/22 06:58:55;;;;;;;17.45;5.53;;;16.50;99.90;;;;;;5034955;28;20040;-71
2022/06/22 07:01:23;;;;;;;25.17;6.50;;;16.40;99.90;;;;;;5034803;28;20021;-73
2022/06/22 07:03:52;;;;;;;23.13;5.95;;;16.40;99.90;;;;;;5034658;28;20112;-70
2022/06/22 07:06:18;;;;;;;25.35;6.57;;;16.40;99.90;;;;;;5034737;28;20026;-71
2022/06/22 07:08:54;;;;;;;16.10;6.03;;;16.30;99.90;;;;;;5034582;28;20389;-71
2022/06/22 07:11:31;;;;;;;23.33;6.03;;;16.20;99.90;;;;;;5034314;28;20037;-71
2022/06/22 07:14:04;;;;;;;23.38;7.05;;;16.00;99.90;;;;;;5035206;28;20377;-71
2022/06/22 07:16:29;;;;;;;25.90;7.75;;;15.90;99.90;;;;;;5034578;28;20026;-71
2022/06/22 07:19:06;;;;;;;30.38;6.40;;;16.00;99.90;;;;;;5034467;28;20037;-71
2022/06/22 07:21:46;;;;;;;28.33;6.47;;;16.00;99.90;;;;;;5034588;28;20029;-71
2022/06/22 07:24:30;;;;;;;22.88;7.20;;;15.90;99.90;;;;;;5033244;28;20026;-71
2022/06/22 07:27:09;;;;;;;27.35;8.07;;;15.70;99.90;;;;;;5034314;28;20473;-70
2022/06/22 07:30:00;;;;;;;26.23;8.20;;;15.60;99.90;;;;;;5044042;28;20052;-71
2022/06/22 07:32:36;;;;;;;18.88;7.05;;;15.50;99.90;;;;;;5042009;28;20381;-71
2022/06/22 07:35:15;;;;;;;27.00;8.63;;;15.50;99.90;;;;;;5054357;28;20028;-71
2022/06/22 07:37:50;;;;;;;21.63;7.20;;;15.50;99.90;;;;;;5038879;28;20022;-71
2022/06/22 07:40:21;;;;;;;27.40;8.70;;;15.50;99.90;;;;;;5033034;28;20495;-71
2022/06/22 07:42:49;;;;;;;26.33;8.98;;;15.50;99.90;;;;;;5034576;28;20466;-71
2022/06/22 07:45:18;;;;;;;24.77;7.78;;;15.50;99.90;;;;;;5042170;28;20033;-71
2022/06/22 07:47:54;;;;;;;27.55;9.50;;;15.50;99.90;;;;;;5054394;28;20119;-71
2022/06/22 07:50:33;;;;;;;23.77;8.95;;;15.50;99.90;;;;;;5052868;28;20064;-71
2022/06/22 07:53:11;;;;;;;23.75;9.43;;;15.50;99.90;;;;;;5054530;28;20444;-72
2022/06/22 07:55:59;;;;;;;20.25;9.32;;;15.60;99.90;;;;;;5054272;28;20021;-71
2022/06/22 07:59:00;;;;;;;21.27;6.55;;;15.60;99.90;;;;;;5054349;28;20028;-72
2022/06/22 08:01:33;;;;;;;22.50;7.07;;;15.70;99.90;;;;;;5041135;28;20044;-72
2022/06/22 08:04:13;;;;;;;19.10;6.35;;;15.80;99.90;;;;;;5034586;28;20025;-71
2022/06/22 08:06:50;;;;;;;14.70;6.88;;;16.00;99.90;;;;;;5034256;28;20171;-72
2022/06/22 08:09:30;;;;;;;19.75;5.63;;;16.20;99.90;;;;;;5033726;28;20021;-72
2022/06/22 08:12:12;;;;;;;16.40;5.10;;;16.50;99.90;;;;;;5035007;28;20039;-72
2022/06/22 08:14:43;;;;;;;18.20;4.85;;;16.70;99.90;;;;;;5035228;28;20420;-72
2022/06/22 08:17:34;;;;;;;7.78;3.63;;;16.70;99.90;;;;;;5034998;28;20478;-72
2022/06/22 08:20:00;;;;;;;9.93;3.60;;;16.50;99.90;;;;;;5031340;28;20042;-72
2022/06/22 08:22:26;;;;;;;10.57;4.82;;;16.30;99.90;;;;;;5036184;28;20028;-72
2022/06/22 08:24:55;;;;;;;8.75;4.03;;;16.10;99.90;;;;;;5038687;28;20017;-72
2022/06/22 08:27:23;;;;;;;10.18;4.25;;;16.00;99.90;;;;;;5038325;28;20045;-72
2022/06/22 08:29:50;;;;;;;14.65;3.55;;;16.10;99.90;;;;;;5038261;28;20462;-72
2022/06/22 08:32:25;;;;;;;9.85;3.00;;;16.10;99.90;;;;;;5038276;28;20029;-72
2022/06/22 08:34:54;;;;;;;14.50;2.88;;;16.20;99.90;;;;;;5038505;28;20028;-72
2022/06/22 08:37:39;;;;;;;8.02;3.42;;;16.20;99.90;;;;;;5052846;28;20016;-72
2022/06/22 08:40:15;;;;;;;14.07;3.53;;;16.50;99.90;;;;;;5053887;28;20120;-71
2022/06/22 08:43:19;;;;;;;10.70;2.15;;;16.70;99.90;;;;;;5018279;28;20034;-72
2022/06/22 08:46:08;;;;;;;6.05;2.40;;;16.70;99.90;;;;;;5018247;28;20033;-72
2022/06/22 08:48:39;;;;;;;6.82;2.17;;;16.80;99.90;;;;;;5033676;28;20033;-71
2022/06/22 08:51:29;;;;;;;5.82;2.00;;;16.90;99.90;;;;;;5037692;28;20037;-72
2022/06/22 08:54:21;;;;;;;5.72;1.90;;;17.00;99.90;;;;;;5036571;28;20389;-72
2022/06/22 08:57:08;;;;;;;9.93;2.67;;;17.00;99.90;;;;;;5036523;28;20033;-72
2022/06/22 08:59:56;;;;;;;5.10;2.10;;;17.10;99.90;;;;;;5037002;28;20026;-72
2022/06/22 09:02:36;;;;;;;7.13;2.75;;;17.10;99.90;;;;;;5037581;28;20480;-72
2022/06/22 09:05:49;;;;;;;10.52;2.88;;;17.00;99.90;;;;;;5037329;28;20017;-71
2022/06/22 09:08:56;;;;;;;6.57;2.33;;;17.00;99.90;;;;;;5026845;28;20065;-72
2022/06/22 09:11:50;;;;;;;10.48;2.47;;;16.90;99.90;;;;;;5014081;28;20041;-72
2022/06/22 09:14:27;;;;;;;10.05;3.03;;;16.90;99.90;;;;;;5037823;28;20098;-72
2022/06/22 09:17:27;;;;;;;11.18;2.42;;;16.90;99.90;;;;;;5037415;28;20470;-72
2022/06/22 09:19:55;;;;;;;9.27;1.98;;;16.90;99.90;;;;;;5037452;28;20404;-72
2022/06/22 09:22:50;;;;;;;9.50;2.35;;;17.00;99.90;;;;;;5037343;28;20105;-72
2022/06/22 09:25:37;;;;;;;8.73;2.55;;;17.00;99.90;;;;;;5033189;28;20099;-72
2022/06/22 09:28:24;;;;;;;10.00;2.55;;;17.00;99.90;;;;;;5025856;28;20029;-72
2022/06/22 09:31:07;;;;;;;7.20;1.55;;;17.20;99.90;;;;;;5030137;28;20045;-72
2022/06/22 09:33:40;;;;;;;7.20;2.10;;;17.30;99.90;;;;;;5036598;28;20044;-72
2022/06/22 09:36:19;;;;;;;6.50;2.20;;;17.60;99.90;;;;;;5026373;28;20031;-72
2022/06/22 09:39:01;;;;;;;5.78;2.15;;;17.70;99.90;;;;;;5056005;28;20025;-72
2022/06/22 09:41:49;;;;;;;9.27;2.05;;;18.00;99.90;;;;;;5056131;28;20029;-72
2022/06/22 09:44:36;;;;;;;5.38;1.75;;;18.00;99.90;;;;;;5037916;28;20508;-71
2022/06/22 09:47:32;;;;;;;7.60;1.70;;;17.90;99.90;;;;;;5036049;28;20033;-71
2022/06/22 09:50:01;;;;;;;7.93;1.65;;;17.80;99.90;;;;;;5036047;28;20053;-71
2022/06/22 09:52:58;;;;;;;5.32;1.75;;;17.80;99.90;;;;;;5036043;28;20025;-72
2022/06/22 09:59:20;;;;;;;7.28;2.50;;;17.80;99.90;;;;;;5036098;28;20028;-71
2022/06/22 10:01:59;;;;;;;3.70;1.48;;;17.70;99.90;;;;;;5015579;28;20038;-71
2022/06/22 10:04:50;;;;;;;7.28;2.30;;;17.80;99.90;;;;;;5031532;28;20536;-72
2022/06/22 10:07:31;;;;;;;7.15;1.63;;;17.80;99.90;;;;;;5036293;28;20037;-71
2022/06/22 10:10:23;;;;;;;6.60;1.70;;;17.60;99.90;;;;;;5035847;28;20024;-72
2022/06/22 10:13:26;;;;;;;6.65;1.95;;;17.40;99.90;;;;;;5036502;28;20355;-71
2022/06/22 10:16:24;;;;;;;4.22;2.15;;;17.30;99.90;;;;;;5035481;28;20033;-72
2022/06/22 10:18:52;;;;;;;10.10;2.10;;;17.20;99.90;;;;;;5035805;28;20067;-72
2022/06/22 10:21:54;;;;;;;5.35;1.90;;;17.10;99.90;;;;;;5036258;28;20419;-71
2022/06/22 10:24:55;;;;;;;4.70;2.00;;;17.00;99.90;;;;;;5033703;28;20032;-72
2022/06/22 10:27:29;;;;;;;4.32;1.52;;;17.00;99.90;;;;;;5033823;28;20048;-72
2022/06/22 10:30:17;;;;;;;5.97;2.05;;;17.00;99.90;;;;;;5034669;28;20041;-72
2022/06/22 10:33:18;;;;;;;4.50;1.73;;;17.10;99.90;;;;;;5031598;28;20026;-73
2022/06/22 10:36:24;;;;;;;4.30;1.80;;;17.10;99.90;;;;;;5036472;28;20112;-72
2022/06/22 10:39:08;;;;;;;4.22;1.70;;;17.30;99.90;;;;;;5006720;28;20037;-73
2022/06/22 10:47:54;;;;;;;5.07;1.50;;;18.10;99.90;;;;;;5034469;28;20111;-72
2022/06/22 10:50:47;;;;;;;4.78;1.48;;;18.40;99.90;;;;;;5034398;28;20036;-72
2022/06/22 10:53:34;;;;;;;2.77;1.23;;;18.60;99.90;;;;;;5025649;28;20036;-73
2022/06/22 10:56:35;;;;;;;3.08;1.75;;;18.80;99.90;;;;;;5029997;28;20508;-72
2022/06/22 10:59:16;;;;;;;5.32;1.92;;;18.70;99.90;;;;;;5029263;28;20050;-72
2022/06/22 11:01:48;;;;;;;4.32;1.88;;;18.50;99.90;;;;;;5032106;28;20021;-71
2022/06/22 11:04:31;;;;;;;5.30;1.60;;;18.20;99.90;;;;;;5035563;28;20041;-72
2022/06/22 11:07:08;;;;;;;2.50;1.83;;;18.20;99.90;;;;;;5035357;28;20480;-71
2022/06/22 11:10:11;;;;;;;11.07;1.92;;;18.00;99.90;;;;;;5034811;28;20079;-71
2022/06/22 11:12:56;;;;;;;1.45;1.25;;;17.80;99.90;;;;;;5034894;28;20040;-72
2022/06/22 11:15:42;;;;;;;6.78;2.40;;;17.70;99.90;;;;;;5041033;28;20021;-72
2022/06/22 11:18:31;;;;;;;6.43;2.05;;;17.60;99.90;;;;;;5039468;28;20024;-72
2022/06/22 11:21:12;;;;;;;2.33;1.63;;;17.70;99.90;;;;;;5034776;28;20037;-72
2022/06/22 11:24:19;;;;;;;4.45;1.95;;;17.80;99.90;;;;;;5030661;28;20382;-72
2022/06/22 11:33:01;;;;;;;6.13;1.63;;;17.70;99.90;;;;;;5034551;28;20059;-71
2022/06/22 11:35:47;;;;;;;3.15;1.60;;;17.40;99.90;;;;;;5034208;28;20103;-71
2022/06/22 11:38:37;;;;;;;9.57;2.72;;;17.60;99.90;;;;;;5034166;28;20024;-71
2022/06/22 11:41:32;;;;;;;6.85;1.55;;;17.80;99.90;;;;;;5034162;28;20026;-71
2022/06/22 11:44:37;;;;;;;4.03;1.90;;;18.00;99.90;;;;;;5030016;28;20042;-72
2022/06/22 11:47:33;;;;;;;5.13;1.55;;;18.10;99.90;;;;;;5034043;28;20028;-72
2022/06/22 11:50:19;;;;;;;3.72;1.77;;;18.20;99.90;;;;;;5033893;28;20064;-72
2022/06/22 11:53:10;;;;;;;8.45;2.03;;;18.10;99.90;;;;;;5022948;28;20104;-72
2022/06/22 11:55:40;;;;;;;5.95;1.60;;;17.80;99.90;;;;;;5033678;28;20037;-71
2022/06/22 11:58:08;;;;;;;3.00;1.70;;;17.40;99.90;;;;;;5033981;28;20033;-72
2022/06/22 12:01:12;;;;;;;2.72;1.58;;;17.20;99.90;;;;;;5034061;28;20100;-72
2022/06/22 12:03:40;;;;;;;5.03;2.30;;;17.20;99.90;;;;;;5033969;28;20386;-71
2022/06/22 12:06:28;;;;;;;7.20;2.20;;;17.30;99.90;;;;;;5033684;28;20034;-72
2022/06/22 12:09:24;;;;;;;5.70;1.60;;;17.30;99.90;;;;;;5033902;28;20486;-72
2022/06/22 12:11:55;;;;;;;3.50;1.40;;;17.30;99.90;;;;;;5034018;28;20119;-71
2022/06/22 12:17:33;;;;;;;3.42;1.58;;;17.50;99.90;;;;;;5033925;28;20144;-72
2022/06/22 12:20:17;;;;;;;4.80;1.83;;;17.90;99.90;;;;;;5033630;28;20478;-71
2022/06/22 12:23:14;;;;;;;4.72;1.65;;;18.10;99.90;;;;;;5033647;28;20101;-71
2022/06/22 12:26:02;;;;;;;2.38;1.45;;;18.30;99.90;;;;;;5033827;28;20386;-71
2022/06/22 12:29:02;;;;;;;2.17;1.45;;;18.30;99.90;;;;;;5033501;28;20121;-72
2022/06/22 12:31:47;;;;;;;6.18;1.60;;;18.50;99.90;;;;;;5033784;28;20105;-71
2022/06/22 12:34:30;;;;;;;5.72;1.60;;;18.50;99.90;;;;;;5033562;28;20025;-71
2022/06/22 12:37:03;;;;;;;4.65;1.42;;;18.50;99.90;;;;;;5033572;28;20030;-71
2022/06/22 12:39:37;;;;;;;2.72;1.55;;;18.40;99.90;;;;;;5033339;28;20061;-71
2022/06/22 12:42:37;;;;;;;6.20;1.52;;;18.40;99.90;;;;;;5034149;28;20045;-69
2022/06/22 12:45:34;;;;;;;3.22;2.00;;;18.30;99.90;;;;;;5026531;28;20111;-69
2022/06/22 12:48:30;;;;;;;6.10;1.50;;;18.40;99.90;;;;;;5033501;28;20032;-69
2022/06/22 12:50:56;;;;;;;3.38;1.45;;;18.30;99.90;;;;;;5033309;28;20032;-68
2022/06/22 12:53:41;;;;;;;4.45;1.90;;;18.30;99.90;;;;;;5031887;28;20026;-69
2022/06/22 12:56:21;;;;;;;3.67;1.40;;;18.50;99.90;;;;;;5033761;28;20481;-69
2022/06/22 12:58:59;;;;;;;2.72;1.40;;;18.50;99.90;;;;;;5033717;28;20036;-69
2022/06/22 13:01:25;;;;;;;6.10;1.10;;;18.40;99.90;;;;;;5034152;28;20017;-69
2022/06/22 13:03:58;;;;;;;2.08;1.13;;;18.20;99.90;;;;;;5034202;28;20071;-69
2022/06/22 13:06:25;;;;;;;2.28;1.05;;;18.10;99.90;;;;;;5033425;28;20013;-69
2022/06/22 13:08:53;;;;;;;3.47;1.17;;;18.10;99.90;;;;;;5035494;28;20028;-69
2022/06/22 13:11:25;;;;;;;2.75;1.27;;;18.20;99.90;;;;;;5036870;28;20029;-69
2022/06/22 13:14:21;;;;;;;3.08;1.20;;;18.20;99.90;;;;;;5036934;28;20163;-69
2022/06/22 13:17:13;;;;;;;2.78;1.30;;;18.30;99.90;;;;;;5036871;28;20028;-69
2022/06/22 13:20:00;;;;;;;2.97;1.10;;;18.40;99.90;;;;;;5035339;28;20025;-69
2022/06/22 13:23:07;;;;;;;1.38;1.13;;;18.60;99.90;;;;;;5036709;28;20541;-70
2022/06/22 13:25:52;;;;;;;4.65;1.38;;;18.70;99.90;;;;;;5036134;28;20053;-70
2022/06/22 13:28:34;;;;;;;1.33;0.82;;;18.70;99.90;;;;;;5036811;28;20061;-70
2022/06/22 13:31:23;;;;;;;1.98;0.98;;;18.70;99.90;;;;;;5036574;28;20057;-70
2022/06/22 13:34:02;;;;;;;1.67;1.05;;;18.50;99.90;;;;;;5036480;28;20033;-70
2022/06/22 13:36:35;;;;;;;4.82;1.30;;;18.60;99.90;;;;;;5036141;28;20106;-70
2022/06/22 13:39:13;;;;;;;1.58;1.00;;;18.60;99.90;;;;;;5036157;28;20033;-70
2022/06/22 13:42:17;;;;;;;1.90;1.13;;;18.60;99.90;;;;;;5011553;28;20042;-71
2022/06/22 13:44:58;;;;;;;2.60;1.20;;;18.60;99.90;;;;;;4976378;28;20130;-71
2022/06/22 13:47:44;;;;;;;3.55;1.60;;;18.60;99.90;;;;;;5015930;28;20109;-71
2022/06/22 13:50:27;;;;;;;1.45;1.10;;;18.90;99.90;;;;;;5016192;28;20486;-70
2022/06/22 13:53:32;;;;;;;1.58;0.80;;;18.90;99.90;;;;;;5016292;28;20025;-70
2022/06/22 13:56:22;;;;;;;1.88;0.95;;;18.80;99.90;;;;;;5015759;28;20022;-70
2022/06/22 13:58:51;;;;;;;6.00;1.00;;;18.70;99.90;;;;;;5015778;28;20149;-70
2022/06/22 14:01:28;;;;;;;1.13;1.02;;;18.60;99.90;;;;;;5016434;28;20041;-70
2022/06/22 14:03:59;;;;;;;1.35;0.85;;;18.60;99.90;;;;;;5015826;28;20149;-71